Time;durP1;ratioP1;P1;durP2;ratioP2;P2;SDS_P1;SDS_P2;PMS_P1;PMS_P2;Temp;Humidity;BMP_temperature;BMP_pressure;BME280_temperature;BME280_humidity;BME280_pressure;Samples;Min_cycle;Max_cycle;Signal;HPM_P1;HPM_P2
2023/10/10 00:01:46;;;;;;;13.32;3.72;;;;;;;13.53;80.98;100688.84;4967976;28;20460;-63
2023/10/10 00:04:19;;;;;;;10.82;3.60;;;;;;;13.53;82.68;100666.06;4958834;28;20078;-61
2023/10/10 00:06:49;;;;;;;14.35;4.40;;;;;;;13.63;81.46;100687.75;4971417;28;20060;-61
2023/10/10 00:09:23;;;;;;;10.20;3.72;;;;;;;13.69;80.94;100682.34;4962105;28;20062;-63
2023/10/10 00:11:57;;;;;;;13.27;3.97;;;;;;;13.70;78.80;100681.44;4971133;28;20058;-61
2023/10/10 00:14:29;;;;;;;9.88;3.47;;;;;;;13.74;77.26;100680.47;4961784;28;20133;-62
2023/10/10 00:17:01;;;;;;;10.38;3.58;;;;;;;13.76;75.83;100683.06;4969936;28;20104;-63
2023/10/10 00:19:42;;;;;;;8.23;3.28;;;;;;;13.91;77.18;100681.84;4956804;28;20054;-62
2023/10/10 00:22:13;;;;;;;13.60;3.67;;;;;;;13.99;72.66;100685.16;4958930;28;20539;-63
2023/10/10 00:24:43;;;;;;;8.52;3.65;;;;;;;13.98;73.09;100678.19;4971116;28;20108;-62
2023/10/10 00:27:14;;;;;;;8.50;3.08;;;;;;;13.90;72.82;100669.59;4961498;28;20136;-62
2023/10/10 00:29:44;;;;;;;10.07;3.40;;;;;;;13.91;74.72;100672.22;4977772;28;20054;-65
2023/10/10 00:32:17;;;;;;;13.32;3.72;;;;;;;14.06;75.55;100675.38;4974525;28;20492;-63
2023/10/10 00:34:49;;;;;;;10.98;3.17;;;;;;;14.20;74.20;100668.88;4983928;28;20061;-65
2023/10/10 00:37:25;;;;;;;8.00;3.42;;;;;;;14.19;73.52;100651.38;4975101;28;20054;-63
2023/10/10 00:39:59;;;;;;;11.68;3.67;;;;;;;14.40;72.40;100665.75;4984129;28;20100;-63
2023/10/10 00:42:38;;;;;;;13.73;3.90;;;;;;;14.28;72.26;100652.03;4975979;28;20292;-61
2023/10/10 00:45:12;;;;;;;9.90;3.38;;;;;;;14.13;68.80;100643.66;4988447;28;20194;-63
2023/10/10 00:47:44;;;;;;;12.43;3.65;;;;;;;14.21;70.06;100664.47;4958288;28;20136;-61
2023/10/10 00:50:19;;;;;;;10.18;3.78;;;;;;;14.23;72.00;100660.91;4966666;28;20050;-61
2023/10/10 00:52:55;;;;;;;13.80;4.00;;;;;;;14.35;71.77;100666.75;4972009;28;20051;-65
2023/10/10 00:55:33;;;;;;;15.88;3.25;;;;;;;14.12;66.91;100676.06;4960614;28;20128;-62
2023/10/10 00:58:04;;;;;;;9.00;2.88;;;;;;;13.90;66.42;100680.97;4973214;28;20499;-62
2023/10/10 01:00:42;;;;;;;5.82;2.50;;;;;;;13.86;67.72;100667.97;4976166;28;20128;-64
2023/10/10 01:03:20;;;;;;;7.70;2.50;;;;;;;13.96;65.96;100653.72;4969420;28;20108;-61
2023/10/10 01:05:58;;;;;;;6.03;2.60;;;;;;;13.96;69.49;100643.19;4974336;28;20472;-64
2023/10/10 01:08:30;;;;;;;11.15;3.58;;;;;;;14.08;71.52;100653.41;4964877;28;20346;-61
2023/10/10 01:11:04;;;;;;;10.50;3.67;;;;;;;14.24;70.43;100649.47;4973294;28;20058;-61
2023/10/10 01:13:35;;;;;;;11.07;3.35;;;;;;;14.19;69.30;100646.09;4959847;28;20189;-65
2023/10/10 01:16:06;;;;;;;14.48;3.88;;;;;;;14.07;71.23;100659.56;4972857;28;20054;-63
2023/10/10 01:18:51;;;;;;;10.35;3.72;;;;;;;14.20;72.47;100647.84;4966449;28;20062;-63
2023/10/10 01:21:30;;;;;;;9.88;3.90;;;;;;;14.27;72.06;100647.69;4964877;28;20061;-62
2023/10/10 01:24:08;;;;;;;11.98;3.38;;;;;;;14.01;71.42;100647.44;4973949;28;20482;-62
2023/10/10 01:26:44;;;;;;;8.32;2.78;;;;;;;13.88;72.18;100645.13;4964399;28;20050;-63
2023/10/10 01:29:21;;;;;;;10.85;2.90;;;;;;;13.82;73.73;100647.00;4964680;28;20046;-62
2023/10/10 01:31:52;;;;;;;13.13;3.63;;;;;;;13.92;73.54;100626.63;4971935;28;20061;-61
2023/10/10 01:34:39;;;;;;;8.13;3.23;;;;;;;13.77;71.68;100648.88;4960583;28;20069;-61
2023/10/10 01:37:20;;;;;;;11.38;3.10;;;;;;;13.22;73.72;100629.09;4962073;28;20301;-61
2023/10/10 01:40:16;;;;;;;9.88;2.85;;;;;;;13.22;72.82;100634.31;4987326;28;20124;-62
2023/10/10 01:42:53;;;;;;;7.55;3.08;;;;;;;13.43;73.89;100645.28;4964240;28;20058;-62
2023/10/10 01:45:27;;;;;;;7.68;3.40;;;;;;;13.68;74.29;100651.75;4972440;28;20053;-63
2023/10/10 01:48:03;;;;;;;9.80;3.70;;;;;;;14.04;74.11;100662.25;4948745;28;20485;-61
2023/10/10 01:50:33;;;;;;;11.77;3.88;;;;;;;14.08;71.90;100648.16;4939381;28;20053;-63
2023/10/10 01:53:09;;;;;;;11.02;3.60;;;;;;;14.16;72.09;100654.09;4948050;28;20146;-60
2023/10/10 01:55:40;;;;;;;9.32;2.65;;;;;;;13.93;69.05;100654.66;4949782;28;20118;-60
2023/10/10 01:58:11;;;;;;;9.90;2.83;;;;;;;13.66;69.52;100650.91;4960355;28;20166;-61
2023/10/10 02:00:46;;;;;;;8.18;2.40;;;;;;;13.16;70.44;100660.72;4967510;28;20069;-64
2023/10/10 02:03:18;;;;;;;10.20;3.30;;;;;;;12.94;71.71;100660.28;4957478;28;20076;-61
2023/10/10 02:05:51;;;;;;;5.50;2.35;;;;;;;13.00;72.01;100654.03;4967052;28;20050;-62
2023/10/10 02:08:23;;;;;;;12.95;2.83;;;;;;;13.19;72.02;100660.63;4957895;28;20069;-64
2023/10/10 02:10:55;;;;;;;8.25;3.53;;;;;;;13.28;72.39;100660.50;4967327;28;20100;-61
2023/10/10 02:13:26;;;;;;;8.50;2.78;;;;;;;13.16;72.04;100660.72;4957919;28;20151;-60
2023/10/10 02:15:59;;;;;;;8.75;3.00;;;;;;;13.28;71.35;100664.84;4967465;28;20161;-65
2023/10/10 02:18:39;;;;;;;8.60;2.72;;;;;;;13.34;70.42;100655.09;4957640;28;20062;-59
2023/10/10 02:21:15;;;;;;;10.25;3.67;;;;;;;13.57;71.75;100643.22;4971801;28;20560;-61
2023/10/10 02:23:47;;;;;;;6.45;2.67;;;;;;;13.49;69.49;100647.78;4966963;28;20153;-61
2023/10/10 02:26:23;;;;;;;10.05;3.15;;;;;;;13.47;70.99;100645.19;4957765;28;20058;-62
2023/10/10 02:29:16;;;;;;;7.15;3.05;;;;;;;13.59;69.37;100638.81;4967092;28;20065;-62
2023/10/10 02:31:51;;;;;;;6.15;3.10;;;;;;;13.70;66.02;100657.78;4961711;28;20137;-60
2023/10/10 02:34:24;;;;;;;9.25;2.20;;;;;;;13.68;67.51;100646.47;4959713;28;20054;-60
2023/10/10 02:37:10;;;;;;;9.57;2.45;;;;;;;13.63;67.51;100650.97;4986264;28;20362;-59
2023/10/10 02:39:48;;;;;;;8.38;2.88;;;;;;;13.64;68.67;100631.69;4964149;28;20532;-60
2023/10/10 02:42:19;;;;;;;8.32;2.78;;;;;;;13.68;66.70;100638.59;4957029;28;20054;-63
2023/10/10 02:44:57;;;;;;;9.95;2.67;;;;;;;13.64;68.52;100634.31;4966982;28;20125;-60
2023/10/10 02:47:32;;;;;;;19.92;3.53;;;;;;;13.60;69.10;100624.78;4943537;28;20050;-62
2023/10/10 02:50:12;;;;;;;7.72;2.25;;;;;;;13.77;68.20;100635.75;4969754;28;20069;-62
2023/10/10 02:52:45;;;;;;;6.85;2.85;;;;;;;13.72;68.44;100629.75;4980172;28;20050;-61
2023/10/10 02:55:22;;;;;;;5.85;2.80;;;;;;;13.68;68.81;100638.59;4995617;28;20550;-61
2023/10/10 02:57:54;;;;;;;4.53;2.50;;;;;;;13.49;68.89;100645.16;5004324;28;20049;-63
2023/10/10 03:00:34;;;;;;;5.88;2.50;;;;;;;13.44;68.44;100644.41;4994381;28;20513;-62
2023/10/10 03:03:05;;;;;;;8.40;2.70;;;;;;;13.45;69.44;100630.38;5004279;28;20060;-64
2023/10/10 03:05:43;;;;;;;7.88;2.92;;;;;;;13.46;68.85;100621.63;4994193;28;20063;-63
2023/10/10 03:08:16;;;;;;;7.97;2.78;;;;;;;13.48;68.39;100635.53;4994209;28;20049;-62
2023/10/10 03:11:00;;;;;;;7.18;2.67;;;;;;;13.61;68.36;100626.50;5003845;28;20589;-61
2023/10/10 03:13:37;;;;;;;8.02;2.80;;;;;;;13.55;68.25;100626.63;4993722;28;20037;-62
2023/10/10 03:16:41;;;;;;;10.10;3.03;;;;;;;13.16;68.43;100576.75;5004645;28;20071;-63
2023/10/10 03:19:26;;;;;;;6.68;2.50;;;;;;;13.35;67.51;100620.09;4967672;28;20101;-61
2023/10/10 03:22:27;;;;;;;9.15;3.03;;;;;;;13.45;68.38;100622.50;4985450;28;20085;-61
2023/10/10 03:27:54;;;;;;;9.65;2.97;;;;;;;13.44;66.93;100607.66;4964013;28;20053;-62
2023/10/10 03:30:34;;;;;;;6.22;2.63;;;;;;;13.40;67.35;100611.25;4956589;28;20061;-61
2023/10/10 03:33:16;;;;;;;7.07;2.63;;;;;;;13.22;67.40;100618.59;4965848;28;20050;-60
2023/10/10 03:36:06;;;;;;;9.95;2.80;;;;;;;13.21;67.59;100622.13;4955925;28;20046;-62
2023/10/10 03:39:13;;;;;;;14.50;3.17;;;;;;;13.32;68.49;100614.88;4959116;28;20057;-63
2023/10/10 05:25:14;;;;;;;9.35;1.75;;;;;;;12.69;61.12;100633.66;4936318;28;20054;-62
2023/10/10 05:27:45;;;;;;;6.35;1.52;;;;;;;12.60;61.74;100623.34;4945844;28;20518;-61
2023/10/10 05:30:23;;;;;;;4.97;1.50;;;;;;;12.64;61.60;100635.50;4939318;28;20054;-64
2023/10/10 05:33:02;;;;;;;6.45;1.63;;;;;;;12.63;60.70;100645.16;4962571;28;20069;-62
2023/10/10 05:35:33;;;;;;;4.22;1.60;;;;;;;12.65;62.04;100637.22;4958375;28;20507;-62
2023/10/10 05:38:04;;;;;;;7.90;1.60;;;;;;;12.54;61.70;100644.44;4968452;28;20158;-60
2023/10/10 05:40:38;;;;;;;3.33;1.75;;;;;;;12.29;62.57;100650.13;4957853;28;20042;-60
2023/10/10 05:43:10;;;;;;;4.88;1.58;;;;;;;12.20;62.41;100645.03;4968875;28;20057;-62
2023/10/10 05:45:42;;;;;;;5.65;1.50;;;;;;;12.02;62.29;100641.81;4958529;28;20046;-60
2023/10/10 05:48:13;;;;;;;7.25;1.80;;;;;;;12.02;64.05;100657.53;4976682;28;20460;-64
2023/10/10 05:50:44;;;;;;;5.28;1.73;;;;;;;11.92;64.20;100655.94;4986662;28;20052;-61
2023/10/10 05:53:16;;;;;;;4.07;1.33;;;;;;;11.90;64.51;100652.50;4976948;28;20822;-64
2023/10/10 05:55:50;;;;;;;4.07;1.55;;;;;;;11.83;64.51;100656.06;4986600;28;20053;-62
2023/10/10 05:58:22;;;;;;;6.00;1.48;;;;;;;11.66;64.36;100649.34;4977016;28;20050;-61
2023/10/10 06:00:54;;;;;;;3.70;1.38;;;;;;;11.63;66.21;100649.38;4981329;28;20144;-63
2023/10/10 06:03:25;;;;;;;2.42;1.02;;;;;;;11.65;64.84;100663.28;4977139;28;20493;-62
2023/10/10 06:05:56;;;;;;;10.07;1.42;;;;;;;11.69;64.59;100658.88;4986862;28;20151;-63
2023/10/10 06:08:27;;;;;;;8.35;1.30;;;;;;;11.68;63.21;100666.75;4977051;28;20179;-60
2023/10/10 06:10:59;;;;;;;6.63;1.45;;;;;;;11.62;62.26;100668.56;4986674;28;20076;-62
2023/10/10 06:13:30;;;;;;;2.95;1.38;;;;;;;11.57;62.15;100677.38;4977261;28;20064;-62
2023/10/10 06:16:08;;;;;;;5.95;1.58;;;;;;;11.53;62.30;100676.56;4987019;28;20266;-64
2023/10/10 06:18:41;;;;;;;2.85;1.10;;;;;;;11.50;63.41;100679.22;4976539;28;20785;-63
2023/10/10 06:21:14;;;;;;;2.35;1.55;;;;;;;11.43;63.79;100678.44;4976737;28;20072;-62
2023/10/10 06:23:45;;;;;;;5.40;1.40;;;;;;;11.38;63.25;100680.25;4986632;28;20050;-62
2023/10/10 06:26:21;;;;;;;3.25;1.42;;;;;;;11.30;62.10;100682.09;4976587;28;20056;-62
2023/10/10 06:28:53;;;;;;;5.80;1.20;;;;;;;11.22;62.30;100683.94;4985964;28;20054;-63
2023/10/10 06:31:33;;;;;;;3.25;1.23;;;;;;;11.18;62.78;100683.13;4976832;28;20088;-62
2023/10/10 06:34:19;;;;;;;2.35;1.00;;;;;;;11.11;62.62;100691.06;4986435;28;20064;-64
2023/10/10 06:36:51;;;;;;;2.97;1.35;;;;;;;11.07;62.44;100689.34;4976467;28;20050;-61
2023/10/10 06:39:32;;;;;;;3.85;1.10;;;;;;;10.97;62.29;100694.69;4976141;28;20053;-64
2023/10/10 06:42:05;;;;;;;3.55;1.08;;;;;;;10.94;62.13;100689.50;4986162;28;20058;-62
2023/10/10 06:44:39;;;;;;;3.63;1.10;;;;;;;10.84;62.38;100697.47;4975940;28;20487;-64
2023/10/10 06:47:11;;;;;;;3.50;1.20;;;;;;;10.77;62.22;100692.28;4977536;28;20081;-61
2023/10/10 06:49:57;;;;;;;4.97;1.00;;;;;;;10.72;62.82;100699.31;4986037;28;20056;-60
2023/10/10 06:52:36;;;;;;;6.55;0.98;;;;;;;10.64;63.77;100698.53;4976750;28;20069;-65
2023/10/10 06:55:10;;;;;;;9.77;1.48;;;;;;;10.55;64.35;100706.44;4986816;28;20056;-66
2023/10/10 06:57:51;;;;;;;4.63;1.15;;;;;;;10.47;64.34;100706.50;4974896;28;20124;-63
2023/10/10 07:03:08;;;;;;;5.55;1.30;;;;;;;10.32;66.71;100717.97;4962760;28;20145;-63
2023/10/10 07:05:39;;;;;;;9.05;1.70;;;;;;;10.21;67.16;100711.94;4937885;28;20055;-62
2023/10/10 07:08:19;;;;;;;3.00;1.30;;;;;;;10.11;67.13;100715.50;4938345;28;20038;-62
2023/10/10 07:10:49;;;;;;;2.88;1.30;;;;;;;10.01;67.45;100719.91;4947399;28;20065;-61
2023/10/10 07:13:29;;;;;;;13.65;1.67;;;;;;;9.94;68.09;100713.84;4950927;28;20069;-62
2023/10/10 07:16:01;;;;;;;7.00;1.27;;;;;;;9.84;69.03;100716.53;4978846;28;20078;-61
2023/10/10 07:18:32;;;;;;;19.83;2.30;;;;;;;9.72;69.63;100723.56;4970509;28;20196;-61
2023/10/10 07:21:30;;;;;;;3.63;1.23;;;;;;;9.60;69.99;100718.41;4978988;28;20049;-63
2023/10/10 07:24:05;;;;;;;10.88;2.10;;;;;;;9.45;71.16;100724.56;4965745;28;20202;-64
2023/10/10 07:26:42;;;;;;;7.70;1.50;;;;;;;9.36;72.25;100722.00;4967935;28;20265;-64
2023/10/10 07:29:57;;;;;;;7.70;1.50;;;;;;;9.24;73.83;100727.25;4975687;28;20097;-62
2023/10/10 07:32:28;;;;;;;5.07;1.58;;;;;;;9.04;76.80;100725.59;4975176;28;20046;-62
2023/10/10 07:34:58;;;;;;;11.82;1.98;;;;;;;8.90;78.90;100727.34;4984875;28;20053;-63
2023/10/10 07:37:30;;;;;;;7.18;1.45;;;;;;;8.82;79.67;100736.94;4975855;28;20526;-62
2023/10/10 07:40:19;;;;;;;11.65;1.85;;;;;;;8.72;80.66;100735.22;4985755;28;20076;-63
2023/10/10 07:42:58;;;;;;;4.97;2.00;;;;;;;8.61;82.06;100737.81;4952179;28;20069;-64
2023/10/10 07:45:33;;;;;;;7.93;1.65;;;;;;;8.52;82.29;100743.91;4936120;28;20536;-63
2023/10/10 07:51:05;;;;;;;6.28;2.28;;;;;;;8.29;84.66;100745.59;4964611;28;20046;-62
2023/10/10 07:53:44;;;;;;;9.13;2.60;;;;;;;7.50;85.71;100632.72;4954079;28;20088;-63
2023/10/10 07:56:14;;;;;;;13.27;2.55;;;;;;;8.06;87.13;100750.75;4955825;28;20089;-64
2023/10/10 07:58:49;;;;;;;7.05;2.08;;;;;;;7.98;87.75;100756.81;4971074;28;20361;-62
2023/10/10 08:01:24;;;;;;;8.48;2.10;;;;;;;7.90;88.85;100757.69;4959005;28;20088;-62
2023/10/10 08:03:54;;;;;;;6.68;2.53;;;;;;;7.84;89.57;100766.34;4997600;28;20076;-64
2023/10/10 08:06:25;;;;;;;10.43;2.58;;;;;;;7.81;90.33;100762.84;4965766;28;20069;-64
2023/10/10 08:09:11;;;;;;;8.85;2.30;;;;;;;7.73;91.66;100768.88;4978738;28;20046;-63
2023/10/10 08:11:41;;;;;;;10.93;2.63;;;;;;;7.65;92.26;100768.00;4970900;28;20069;-65
2023/10/10 08:14:12;;;;;;;7.18;2.22;;;;;;;7.59;92.67;100783.59;4936918;28;20300;-66
2023/10/10 08:16:45;;;;;;;6.40;2.33;;;;;;;7.45;93.73;100769.66;4946485;28;20051;-65
2023/10/10 08:19:15;;;;;;;10.48;2.50;;;;;;;7.41;94.41;100778.28;4944854;28;20058;-64
2023/10/10 08:21:50;;;;;;;11.82;2.53;;;;;;;7.40;95.01;100785.22;4965523;28;20058;-63
2023/10/10 08:24:21;;;;;;;7.43;2.55;;;;;;;7.34;95.48;100788.69;4956194;28;20054;-62
2023/10/10 08:26:52;;;;;;;7.53;2.30;;;;;;;7.28;95.72;100792.97;4965901;28;20065;-61
2023/10/10 08:29:25;;;;;;;5.82;1.88;;;;;;;7.22;96.22;100788.63;4956516;28;20061;-64
2023/10/10 08:31:57;;;;;;;10.45;2.78;;;;;;;7.21;96.64;100786.00;4954871;28;20043;-62
2023/10/10 08:34:28;;;;;;;13.38;2.33;;;;;;;7.06;97.03;100776.38;4937074;28;20073;-64
2023/10/10 08:37:03;;;;;;;6.47;2.10;;;;;;;7.07;97.62;100788.53;4958397;28;20080;-63
2023/10/10 08:39:36;;;;;;;7.32;2.30;;;;;;;7.05;98.10;100803.22;4950072;28;20070;-65
2023/10/10 08:42:10;;;;;;;8.63;2.33;;;;;;;7.00;98.02;100807.53;4962200;28;20046;-64
2023/10/10 08:44:41;;;;;;;12.15;3.03;;;;;;;6.89;98.34;100803.13;4955337;28;20073;-64
2023/10/10 08:47:19;;;;;;;6.30;2.30;;;;;;;6.95;98.34;100799.69;4969109;28;20140;-65
2023/10/10 08:49:49;;;;;;;12.20;2.67;;;;;;;6.93;98.21;100800.53;4984280;28;20077;-62
2023/10/10 08:52:22;;;;;;;15.15;2.97;;;;;;;6.86;98.55;100800.50;4974593;28;20061;-65
2023/10/10 08:54:53;;;;;;;11.27;2.45;;;;;;;6.83;98.53;100805.66;4984439;28;20077;-63
2023/10/10 08:57:27;;;;;;;8.23;3.17;;;;;;;6.74;99.03;100816.00;4974209;28;20137;-65
2023/10/10 08:59:57;;;;;;;6.20;2.20;;;;;;;6.70;99.46;100811.63;4984347;28;20405;-66
2023/10/10 09:02:33;;;;;;;6.25;1.90;;;;;;;6.63;99.92;100817.63;4970880;28;20046;-65
2023/10/10 09:05:06;;;;;;;7.00;3.00;;;;;;;6.55;100.00;100816.69;4990522;28;20586;-67
2023/10/10 09:07:42;;;;;;;14.48;2.80;;;;;;;6.51;100.00;100812.31;4972040;28;20788;-65
2023/10/10 09:10:15;;;;;;;12.50;5.32;;;;;;;6.47;100.00;100822.69;4966639;28;21354;-66
2023/10/10 09:15:35;;;;;;;7.85;3.50;;;;;;;6.37;100.00;100830.38;4971975;28;20054;-64
2023/10/10 09:18:22;;;;;;;6.50;4.15;;;;;;;6.22;100.00;100828.50;4989858;28;20452;-66
2023/10/10 09:20:53;;;;;;;8.52;4.55;;;;;;;5.91;99.88;100820.31;4978026;28;20755;-63
2023/10/10 09:23:25;;;;;;;9.15;5.40;;;;;;;5.89;100.00;100832.44;4967593;28;20053;-66
2023/10/10 09:26:18;;;;;;;5.57;2.30;;;;;;;5.28;100.00;100749.56;4980037;28;20156;-66
2023/10/10 09:28:55;;;;;;;10.57;2.13;;;;;;;5.65;100.00;100832.13;4979453;28;20069;-68
2023/10/10 09:31:31;;;;;;;6.28;2.55;;;;;;;5.65;100.00;100837.31;4964504;28;20058;-67
2023/10/10 09:34:06;;;;;;;4.70;2.33;;;;;;;5.55;100.00;100837.19;4971022;28;20066;-64
2023/10/10 09:36:50;;;;;;;15.27;4.00;;;;;;;5.53;100.00;100844.06;4972632;28;20149;-67
2023/10/10 09:39:36;;;;;;;6.28;3.80;;;;;;;5.32;100.00;100833.41;4981615;28;20056;-65
2023/10/10 09:42:26;;;;;;;11.13;3.42;;;;;;;4.94;100.00;100790.56;4983524;28;20065;-65
2023/10/10 09:47:55;;;;;;;5.57;2.25;;;;;;;5.16;100.00;100848.72;4972212;28;20395;-64
2023/10/10 09:50:34;;;;;;;5.80;1.90;;;;;;;5.08;100.00;100845.13;4969427;28;20136;-66
2023/10/10 09:53:19;;;;;;;4.85;1.50;;;;;;;5.01;100.00;100848.47;4988418;28;20128;-68
2023/10/10 09:55:53;;;;;;;6.68;1.83;;;;;;;4.92;100.00;100853.53;4973288;28;20128;-68
2023/10/10 09:58:27;;;;;;;5.63;1.90;;;;;;;4.87;100.00;100850.00;4979566;28;20571;-67
2023/10/10 10:01:14;;;;;;;5.05;2.70;;;;;;;4.81;100.00;100844.69;4982568;28;20046;-67
2023/10/10 10:03:55;;;;;;;3.42;2.10;;;;;;;4.69;100.00;100854.03;4968113;28;20046;-66
2023/10/10 10:06:50;;;;;;;7.95;2.22;;;;;;;4.59;100.00;100856.41;4980648;28;20107;-65
2023/10/10 10:09:51;;;;;;;4.72;1.90;;;;;;;4.62;100.00;100859.94;4981880;28;20158;-64
2023/10/10 10:12:44;;;;;;;5.88;1.83;;;;;;;4.61;100.00;100847.81;4969333;28;20112;-67
2023/10/10 10:15:28;;;;;;;9.23;1.90;;;;;;;4.58;100.00;100847.78;4978120;28;20062;-65
2023/10/10 10:18:12;;;;;;;8.40;5.55;;;;;;;4.51;100.00;100845.94;4983065;28;20050;-65
2023/10/10 10:20:47;;;;;;;14.75;10.93;;;;;;;4.44;100.00;100844.06;4977539;28;20042;-69
2023/10/10 10:23:27;;;;;;;13.30;7.90;;;;;;;4.42;100.00;100840.56;4970364;28;20046;-68
2023/10/10 10:26:10;;;;;;;9.65;3.65;;;;;;;4.40;100.00;100845.75;4986653;28;20053;-67
2023/10/10 10:28:56;;;;;;;4.82;2.60;;;;;;;4.39;100.00;100846.56;4960646;28;20054;-65
2023/10/10 10:31:36;;;;;;;4.60;1.67;;;;;;;4.37;100.00;100852.56;4962832;28;20058;-65
2023/10/10 10:34:23;;;;;;;8.70;1.67;;;;;;;4.28;100.00;100853.28;4972713;28;20362;-67
2023/10/10 10:36:57;;;;;;;3.88;2.15;;;;;;;4.18;100.00;100848.78;4988729;28;20492;-66
2023/10/10 10:39:35;;;;;;;6.13;2.30;;;;;;;4.08;100.00;100839.97;4978289;28;20069;-67
2023/10/10 10:42:11;;;;;;;9.45;4.72;;;;;;;4.09;100.00;100846.88;4983468;28;20061;-64
2023/10/10 10:44:54;;;;;;;14.02;6.88;;;;;;;4.09;100.00;100841.69;4971475;28;20057;-65
2023/10/10 10:47:47;;;;;;;21.73;11.68;;;;;;;4.10;100.00;100844.31;4968578;28;20057;-65
2023/10/10 10:50:45;;;;;;;10.60;6.55;;;;;;;4.10;100.00;100843.47;4978553;28;20059;-68
2023/10/10 10:53:32;;;;;;;9.77;2.58;;;;;;;4.12;100.00;100846.94;4980652;28;20417;-66
2023/10/10 10:56:37;;;;;;;6.20;2.38;;;;;;;4.19;100.00;100847.91;4977965;28;20155;-66
2023/10/10 10:59:12;;;;;;;6.18;2.60;;;;;;;4.20;100.00;100845.38;4984017;28;20058;-65
2023/10/10 11:01:51;;;;;;;5.20;2.30;;;;;;;4.10;100.00;100853.81;4970186;28;20061;-64
2023/10/10 11:07:27;;;;;;;5.57;2.20;;;;;;;3.78;100.00;100859.19;4956083;28;20810;-65
2023/10/10 11:10:07;;;;;;;4.85;2.33;;;;;;;3.75;100.00;100851.38;4975868;28;20145;-66
2023/10/10 11:12:40;;;;;;;5.55;2.55;;;;;;;3.67;100.00;100842.59;4971886;28;20057;-64
2023/10/10 11:15:12;;;;;;;7.68;2.70;;;;;;;3.80;100.00;100852.34;4974518;28;20680;-63
2023/10/10 11:17:51;;;;;;;5.53;2.70;;;;;;;3.88;100.00;100850.78;4984928;28;20076;-65
2023/10/10 11:20:54;;;;;;;5.40;3.00;;;;;;;3.87;100.00;100851.63;4967747;28;20049;-69
2023/10/10 11:23:21;;;;;;;10.43;4.72;;;;;;;3.94;100.00;100851.75;4978586;28;20053;-67
2023/10/10 11:26:00;;;;;;;22.38;11.80;;;;;;;3.97;100.00;100847.53;4980106;28;20117;-69
2023/10/10 11:28:46;;;;;;;16.83;9.98;;;;;;;3.92;100.00;100843.06;4962065;28;20502;-68
2023/10/10 11:31:23;;;;;;;10.32;5.30;;;;;;;3.93;100.00;100860.34;4975738;28;20049;-68
2023/10/10 11:34:25;;;;;;;14.43;5.80;;;;;;;3.82;100.00;100850.66;4967874;28;20145;-68
2023/10/10 11:37:14;;;;;;;11.57;5.35;;;;;;;3.72;100.00;100851.31;4974604;28;20060;-67
2023/10/10 11:39:49;;;;;;;10.13;2.88;;;;;;;3.58;100.00;100853.59;4977066;28;20068;-68
2023/10/10 11:42:29;;;;;;;5.18;2.13;;;;;;;3.52;100.00;100847.41;4981492;28;20060;-69
2023/10/10 11:45:10;;;;;;;5.00;1.98;;;;;;;3.37;100.00;100838.53;4995918;28;20157;-67
2023/10/10 11:47:44;;;;;;;10.30;2.20;;;;;;;3.34;100.00;100851.34;4955547;28;20050;-63
2023/10/10 11:50:17;;;;;;;3.72;1.90;;;;;;;3.37;100.00;100851.44;4961481;28;20046;-63
2023/10/10 11:52:56;;;;;;;6.10;1.85;;;;;;;3.34;100.00;100851.34;4969949;28;20129;-65
2023/10/10 11:55:26;;;;;;;5.22;2.90;;;;;;;3.42;100.00;100857.56;4974014;28;20042;-67
2023/10/10 11:57:57;;;;;;;7.68;3.03;;;;;;;2.81;100.00;100742.56;4981544;28;20107;-66
2023/10/10 12:00:42;;;;;;;5.63;2.33;;;;;;;3.48;100.00;100850.81;4973550;28;20061;-68
2023/10/10 12:03:13;;;;;;;7.18;2.38;;;;;;;3.53;100.00;100851.75;4976129;28;20514;-65
2023/10/10 12:05:52;;;;;;;5.90;2.33;;;;;;;3.59;100.00;100849.31;4979908;28;20046;-65
2023/10/10 12:08:24;;;;;;;7.03;2.65;;;;;;;3.58;100.00;100847.56;4967396;28;20069;-64
2023/10/10 12:11:04;;;;;;;6.25;2.30;;;;;;;3.29;100.00;100803.00;4989820;28;20053;-66
2023/10/10 12:13:35;;;;;;;4.80;2.30;;;;;;;3.58;100.00;100852.75;4976727;28;20052;-67
2023/10/10 12:16:11;;;;;;;9.63;2.47;;;;;;;3.57;100.00;100845.81;4985364;28;20579;-68
2023/10/10 12:18:49;;;;;;;5.07;2.60;;;;;;;3.51;100.00;100843.09;4974567;28;20045;-67
2023/10/10 12:21:21;;;;;;;4.60;2.38;;;;;;;3.44;100.00;100845.56;4974584;28;20076;-66
2023/10/10 12:23:55;;;;;;;5.75;2.63;;;;;;;3.36;100.00;100841.06;4984159;28;20188;-65
2023/10/10 12:26:30;;;;;;;4.40;2.28;;;;;;;3.12;100.00;100812.97;4974619;28;20057;-68
2023/10/10 12:29:02;;;;;;;8.70;4.43;;;;;;;3.26;100.00;100849.44;4984279;28;20067;-67
2023/10/10 12:31:34;;;;;;;35.15;18.58;;;;;;;3.23;100.00;100852.81;4974632;28;20094;-66
2023/10/10 12:34:09;;;;;;;17.50;9.23;;;;;;;3.20;100.00;100850.19;4984779;28;20764;-68
2023/10/10 12:36:40;;;;;;;9.00;2.90;;;;;;;3.20;100.00;100855.34;4974379;28;20045;-67
2023/10/10 12:39:14;;;;;;;4.28;2.70;;;;;;;3.22;100.00;100858.81;4980421;28;20149;-64
2023/10/10 12:41:47;;;;;;;9.38;3.13;;;;;;;3.26;100.00;100860.63;4988136;28;20049;-64
2023/10/10 12:44:17;;;;;;;10.13;2.90;;;;;;;3.29;100.00;100855.53;4978393;28;20101;-67
2023/10/10 12:46:50;;;;;;;12.40;3.10;;;;;;;3.32;100.00;100860.78;4971742;28;20061;-64
2023/10/10 12:49:29;;;;;;;9.95;3.20;;;;;;;3.26;100.00;100855.47;4948417;28;20133;-68
2023/10/10 12:52:01;;;;;;;4.85;2.20;;;;;;;3.20;100.00;100839.84;4968611;28;20078;-67
2023/10/10 12:54:36;;;;;;;6.47;3.00;;;;;;;3.39;100.00;100847.16;4948318;28;20061;-67
2023/10/10 12:57:13;;;;;;;12.55;2.75;;;;;;;3.38;100.00;100854.88;4957402;28;20054;-66
2023/10/10 12:59:46;;;;;;;7.57;3.38;;;;;;;3.32;100.00;100850.47;4950597;28;20145;-65
2023/10/10 13:02:25;;;;;;;7.30;3.28;;;;;;;3.38;100.00;100858.34;4965159;28;20054;-65
2023/10/10 13:04:56;;;;;;;8.52;3.20;;;;;;;3.40;100.00;100854.09;4987831;28;20120;-67
2023/10/10 13:07:34;;;;;;;6.65;3.33;;;;;;;3.38;100.00;100858.34;4978117;28;20067;-68
2023/10/10 13:10:10;;;;;;;11.27;3.10;;;;;;;3.39;100.00;100854.03;4988069;28;20141;-67
2023/10/10 13:12:45;;;;;;;6.30;2.65;;;;;;;3.35;100.00;100866.03;4976974;28;20132;-64
2023/10/10 13:15:19;;;;;;;4.93;2.17;;;;;;;3.33;100.00;100865.09;4977962;28;20152;-67
2023/10/10 13:18:11;;;;;;;7.90;2.40;;;;;;;3.22;100.00;100869.13;4987583;28;20064;-65
2023/10/10 13:20:43;;;;;;;4.93;2.20;;;;;;;3.13;100.00;100868.94;4977371;28;20061;-66
2023/10/10 13:23:13;;;;;;;9.98;2.90;;;;;;;3.08;100.00;100873.13;4977620;28;20057;-66
2023/10/10 13:25:43;;;;;;;5.93;2.50;;;;;;;3.08;100.00;100876.59;4987526;28;20042;-67
2023/10/10 13:28:17;;;;;;;4.05;2.60;;;;;;;3.05;100.00;100875.66;4978154;28;20085;-67
2023/10/10 13:30:48;;;;;;;8.32;2.65;;;;;;;2.94;100.00;100858.16;4987421;28;20054;-67
2023/10/10 13:33:21;;;;;;;4.57;2.25;;;;;;;3.06;100.00;100877.38;4977387;28;20054;-65
2023/10/10 13:35:52;;;;;;;5.30;2.42;;;;;;;2.96;100.00;100882.31;4987437;28;20132;-65
2023/10/10 13:38:25;;;;;;;5.38;2.45;;;;;;;2.93;100.00;100876.22;4977678;28;20058;-65
2023/10/10 13:40:55;;;;;;;9.73;3.10;;;;;;;2.83;100.00;100875.13;4980684;28;20105;-67
2023/10/10 13:43:26;;;;;;;7.93;3.17;;;;;;;2.78;100.00;100876.72;4959139;28;20054;-65
2023/10/10 13:45:57;;;;;;;5.40;2.28;;;;;;;2.75;100.00;100884.38;4994690;28;20054;-67
2023/10/10 13:48:30;;;;;;;4.35;2.10;;;;;;;2.69;100.00;100881.63;4976847;28;20626;-66
2023/10/10 13:51:04;;;;;;;5.05;2.80;;;;;;;2.59;100.00;100875.34;4986425;28;20116;-68
2023/10/10 13:53:35;;;;;;;6.07;2.67;;;;;;;2.59;100.00;100885.69;4976727;28;20058;-64
2023/10/10 13:56:05;;;;;;;5.20;2.38;;;;;;;2.55;100.00;100879.56;4986704;28;20543;-64
2023/10/10 13:58:37;;;;;;;7.18;2.65;;;;;;;2.51;100.00;100882.91;4976083;28;20060;-68
2023/10/10 14:01:18;;;;;;;5.88;2.00;;;;;;;2.50;100.00;100881.16;4987177;28;20060;-68
2023/10/10 14:03:56;;;;;;;5.95;2.03;;;;;;;2.22;100.00;100852.88;4976324;28;20541;-67
2023/10/10 14:06:34;;;;;;;3.95;2.22;;;;;;;2.38;100.00;100880.84;4976599;28;20552;-69
2023/10/10 14:09:04;;;;;;;9.60;2.25;;;;;;;2.40;100.00;100883.44;4985958;28;20054;-65